createdAt,value
2018-05-31T00:02:05.307Z,26.42
2018-05-31T00:04:32.755Z,26.16
2018-05-31T00:07:00.143Z,26.32
2018-05-31T00:09:27.549Z,26.16
2018-05-31T00:11:55.088Z,25.94
2018-05-31T00:14:22.466Z,25.84
2018-05-31T00:16:49.857Z,26.26
2018-05-31T00:19:17.241Z,25.90
2018-05-31T00:21:44.786Z,26.16
2018-05-31T00:24:12.220Z,26.12
2018-05-31T00:26:39.649Z,26.28
2018-05-31T00:29:08.014Z,25.84
2018-05-31T00:31:35.400Z,25.67
2018-05-31T00:34:02.795Z,25.43
2018-05-31T00:36:30.419Z,25.47
2018-05-31T00:38:57.843Z,25.31
2018-05-31T00:41:25.481Z,25.75
2018-05-31T00:43:52.855Z,26.01
2018-05-31T00:46:20.268Z,25.87
2018-05-31T00:48:47.640Z,25.91
2018-05-31T00:51:15.022Z,25.98
2018-05-31T00:53:42.418Z,25.75
2018-05-31T00:56:16.522Z,24.78
2018-05-31T00:58:43.903Z,24.90
2018-05-31T01:01:11.294Z,25.49
2018-05-31T01:03:38.664Z,24.98
2018-05-31T01:06:06.089Z,25.11
2018-05-31T01:08:33.471Z,25.07
2018-05-31T01:11:00.903Z,25.16
2018-05-31T01:13:28.528Z,25.23
2018-05-31T01:15:57.138Z,24.97
2018-05-31T01:18:24.557Z,24.63
2018-05-31T01:20:52.128Z,24.36
2018-05-31T01:23:19.579Z,23.30
2018-05-31T01:25:46.978Z,23.08
2018-05-31T01:28:14.372Z,22.83
2018-05-31T01:30:41.756Z,23.28
2018-05-31T01:33:09.157Z,23.00
2018-05-31T01:35:36.576Z,22.70
2018-05-31T01:38:15.813Z,22.95
2018-05-31T01:40:43.246Z,22.80
2018-05-31T01:43:10.624Z,22.64
2018-05-31T01:45:37.995Z,22.75
2018-05-31T01:48:05.394Z,22.73
2018-05-31T01:50:32.786Z,22.95
2018-05-31T01:53:00.232Z,22.53
2018-05-31T01:55:27.933Z,22.51
2018-05-31T01:57:55.328Z,22.64
2018-05-31T02:00:22.726Z,22.56
2018-05-31T02:02:50.367Z,23.00
2018-05-31T02:05:17.753Z,23.18
2018-05-31T02:07:45.371Z,23.23
2018-05-31T02:10:12.736Z,23.00
2018-05-31T02:12:40.132Z,23.46
2018-05-31T02:15:08.577Z,23.00
2018-05-31T02:17:36.278Z,22.78
2018-05-31T02:20:03.844Z,22.99
2018-05-31T02:22:31.220Z,23.49
2018-05-31T02:24:58.600Z,23.39
2018-05-31T02:27:25.984Z,23.36
2018-05-31T02:29:53.487Z,23.61
2018-05-31T02:32:20.908Z,23.06
2018-05-31T02:34:48.287Z,23.38
2018-05-31T02:37:15.673Z,23.17
2018-05-31T02:39:43.051Z,23.35
2018-05-31T02:42:10.435Z,23.47
2018-05-31T02:44:41.237Z,22.91
2018-05-31T02:47:10.931Z,22.80
2018-05-31T02:49:39.031Z,22.90
2018-05-31T02:52:06.412Z,22.95
2018-05-31T02:54:33.807Z,22.45
2018-05-31T02:57:01.177Z,22.66
2018-05-31T02:59:28.572Z,22.27
2018-05-31T03:01:55.945Z,22.60
2018-05-31T03:04:23.332Z,22.05
2018-05-31T03:06:50.726Z,22.09
2018-05-31T03:09:18.119Z,21.88
2018-05-31T03:11:45.701Z,22.11
2018-05-31T03:14:13.082Z,22.01
2018-05-31T03:16:40.455Z,21.98
2018-05-31T03:19:07.842Z,21.93
2018-05-31T03:21:35.228Z,21.68
2018-05-31T03:24:02.624Z,22.32
2018-05-31T03:26:30.008Z,21.99
2018-05-31T03:28:57.400Z,21.95
2018-05-31T03:31:24.784Z,22.51
2018-05-31T03:33:52.168Z,22.13
2018-05-31T03:36:19.553Z,22.16
2018-05-31T03:38:46.935Z,22.17
2018-05-31T03:41:14.321Z,22.28
2018-05-31T03:43:41.727Z,22.30
2018-05-31T03:46:10.092Z,22.27
2018-05-31T03:48:37.473Z,22.25
2018-05-31T03:51:04.858Z,22.11
2018-05-31T03:53:32.234Z,21.71
2018-05-31T03:55:59.626Z,21.80
2018-05-31T03:58:27.006Z,21.90
2018-05-31T04:00:54.415Z,21.71
2018-05-31T04:03:21.804Z,22.10
2018-05-31T04:05:49.193Z,22.29
2018-05-31T04:08:16.580Z,22.17
2018-05-31T04:10:43.973Z,21.79
2018-05-31T04:13:11.353Z,22.27
2018-05-31T04:15:43.198Z,22.06
2018-05-31T04:18:10.685Z,22.16
2018-05-31T04:20:38.124Z,22.12
2018-05-31T04:23:05.495Z,22.31
2018-05-31T04:25:32.893Z,22.54
2018-05-31T04:28:00.282Z,23.00
2018-05-31T04:30:27.658Z,23.10
2018-05-31T04:32:55.052Z,23.03
2018-05-31T04:35:22.455Z,22.91
2018-05-31T04:37:49.842Z,22.90
2018-05-31T04:40:17.235Z,22.81
2018-05-31T04:42:44.626Z,22.79
2018-05-31T04:45:12.008Z,22.71
2018-05-31T04:47:40.440Z,23.12
2018-05-31T04:50:07.837Z,23.11
2018-05-31T04:52:35.227Z,23.29
2018-05-31T04:55:02.953Z,23.21
2018-05-31T04:57:30.334Z,23.13
2018-05-31T04:59:57.863Z,23.10
2018-05-31T05:02:25.253Z,23.36
2018-05-31T05:04:52.775Z,22.97
2018-05-31T05:07:20.159Z,22.81
2018-05-31T05:09:47.547Z,22.44
2018-05-31T05:12:15.309Z,22.61
2018-05-31T05:14:42.687Z,23.01
2018-05-31T05:17:10.640Z,23.17
2018-05-31T05:19:38.048Z,23.18
2018-05-31T05:22:05.423Z,23.28
2018-05-31T05:24:32.930Z,23.31
2018-05-31T05:27:00.312Z,23.78
2018-05-31T05:29:27.694Z,23.30
2018-05-31T05:31:55.071Z,23.39
2018-05-31T05:34:22.451Z,23.15
2018-05-31T05:36:49.849Z,23.52
2018-05-31T05:39:18.012Z,23.48
2018-05-31T05:41:45.603Z,23.58
2018-05-31T05:44:12.966Z,23.77
2018-05-31T05:46:41.213Z,23.93
2018-05-31T05:49:08.611Z,23.93
2018-05-31T05:51:35.994Z,23.89
2018-05-31T05:54:03.371Z,23.85
2018-05-31T05:56:30.804Z,23.69
2018-05-31T05:58:58.126Z,23.87
2018-05-31T06:01:25.528Z,23.93
2018-05-31T06:03:52.894Z,24.13
2018-05-31T06:06:20.295Z,24.12
2018-05-31T06:08:47.683Z,24.25
2018-05-31T06:11:15.062Z,24.44
2018-05-31T06:13:42.460Z,24.60
2018-05-31T06:16:09.851Z,24.39
2018-05-31T06:18:37.231Z,24.22
2018-05-31T06:21:04.619Z,24.09
2018-05-31T06:23:32.009Z,24.29
2018-05-31T06:25:59.414Z,24.08
2018-05-31T06:28:26.857Z,24.20
2018-05-31T06:30:54.243Z,24.19
2018-05-31T06:33:21.619Z,24.26
2018-05-31T06:35:49.034Z,24.21
2018-05-31T06:38:16.604Z,23.99
2018-05-31T06:40:43.993Z,24.27
2018-05-31T06:43:11.371Z,24.29
2018-05-31T06:45:38.769Z,24.15
2018-05-31T06:48:06.294Z,24.28
2018-05-31T06:50:33.790Z,24.17
2018-05-31T06:53:01.170Z,24.27
2018-05-31T06:55:28.558Z,24.09
2018-05-31T06:57:55.935Z,24.40
2018-05-31T07:00:23.303Z,24.43
2018-05-31T07:02:50.847Z,24.74
2018-05-31T07:05:18.226Z,24.84
2018-05-31T07:07:45.614Z,25.02
2018-05-31T07:10:12.983Z,25.17
2018-05-31T07:12:40.370Z,25.20
2018-05-31T07:15:07.759Z,25.40
2018-05-31T07:17:35.131Z,25.59
2018-05-31T07:20:02.512Z,25.60
2018-05-31T07:22:29.891Z,25.54
2018-05-31T07:24:57.274Z,25.51
2018-05-31T07:27:24.698Z,25.56
2018-05-31T07:29:52.064Z,25.33
2018-05-31T07:32:19.457Z,25.62
2018-05-31T07:34:46.835Z,25.72
2018-05-31T07:37:14.292Z,25.55
2018-05-31T07:39:41.661Z,25.65
2018-05-31T07:42:09.060Z,25.84
2018-05-31T07:44:36.467Z,25.69
2018-05-31T07:47:03.848Z,25.69
2018-05-31T07:49:31.234Z,26.26
2018-05-31T07:51:58.630Z,26.45
2018-05-31T07:54:26.017Z,26.33
2018-05-31T07:56:53.424Z,26.22
2018-05-31T07:59:20.826Z,26.36
2018-05-31T08:01:48.207Z,26.47
2018-05-31T08:04:15.587Z,26.16
2018-05-31T08:06:42.997Z,26.06
2018-05-31T08:09:10.366Z,26.18
2018-05-31T08:11:37.800Z,26.08
2018-05-31T08:14:05.189Z,26.19
2018-05-31T08:16:32.572Z,25.90
2018-05-31T08:18:59.963Z,25.96
2018-05-31T08:21:27.359Z,26.14
2018-05-31T08:23:54.739Z,26.35
2018-05-31T08:26:22.139Z,26.55
2018-05-31T08:28:49.538Z,26.47
2018-05-31T08:31:17.338Z,26.64
2018-05-31T08:33:44.738Z,26.23
2018-05-31T08:36:12.111Z,26.43
2018-05-31T08:38:40.507Z,26.48
2018-05-31T08:41:07.884Z,26.44
2018-05-31T08:43:35.412Z,26.49
2018-05-31T08:46:02.808Z,26.73
2018-05-31T08:48:30.182Z,27.00
2018-05-31T08:50:57.594Z,26.76
2018-05-31T08:53:24.946Z,26.89
2018-05-31T08:55:52.336Z,27.17
2018-05-31T08:58:19.726Z,27.06
2018-05-31T09:00:47.107Z,27.03
2018-05-31T09:03:14.492Z,27.13
2018-05-31T09:05:41.875Z,27.19
2018-05-31T09:08:09.258Z,27.25
2018-05-31T09:10:36.837Z,27.47
2018-05-31T09:13:04.220Z,27.43
2018-05-31T09:15:31.616Z,27.59
2018-05-31T09:17:59.013Z,27.37
2018-05-31T09:20:26.393Z,27.19
2018-05-31T09:22:53.804Z,27.57
2018-05-31T09:25:21.183Z,27.72
2018-05-31T09:27:48.591Z,27.71
2018-05-31T09:30:16.019Z,27.86
2018-05-31T09:32:43.404Z,28.01
2018-05-31T09:35:10.852Z,27.77
2018-05-31T09:37:38.249Z,28.15
2018-05-31T09:40:05.631Z,28.43
2018-05-31T09:42:33.010Z,28.43
2018-05-31T09:45:00.425Z,28.32
2018-05-31T09:47:27.814Z,28.28
2018-05-31T09:49:55.198Z,28.32
2018-05-31T09:52:22.586Z,28.65
2018-05-31T09:54:50.044Z,28.79
2018-05-31T09:57:17.433Z,28.17
2018-05-31T09:59:44.817Z,28.27
2018-05-31T10:02:12.203Z,28.52
2018-05-31T10:04:39.584Z,28.38
2018-05-31T10:07:07.760Z,28.25
2018-05-31T10:09:35.154Z,28.43
2018-05-31T10:12:02.532Z,28.54
2018-05-31T10:14:29.948Z,28.98
2018-05-31T10:16:57.332Z,29.37
2018-05-31T10:19:25.703Z,29.51
2018-05-31T10:21:54.345Z,29.16
2018-05-31T10:24:22.093Z,29.14
2018-05-31T10:26:49.580Z,29.41
2018-05-31T10:29:16.977Z,29.51
2018-05-31T10:31:44.355Z,29.92
2018-05-31T10:34:11.753Z,29.32
2018-05-31T10:36:39.127Z,29.62
2018-05-31T10:39:06.533Z,30.36
2018-05-31T10:41:33.916Z,30.18
2018-05-31T10:44:03.451Z,30.57
2018-05-31T10:46:30.977Z,30.58
2018-05-31T10:48:58.320Z,30.37
2018-05-31T10:51:27.619Z,29.92
2018-05-31T10:53:55.332Z,29.90
2018-05-31T10:56:22.711Z,29.62
2018-05-31T10:58:50.101Z,29.39
2018-05-31T11:01:17.488Z,29.63
2018-05-31T11:03:44.884Z,30.47
2018-05-31T11:06:12.268Z,30.78
2018-05-31T11:08:39.686Z,30.19
2018-05-31T11:11:07.039Z,30.15
2018-05-31T11:13:34.512Z,29.92
2018-05-31T11:16:01.898Z,30.22
2018-05-31T11:18:29.280Z,30.51
2018-05-31T11:20:56.664Z,30.28
2018-05-31T11:23:24.059Z,30.17
2018-05-31T11:25:52.454Z,30.39
2018-05-31T11:28:19.839Z,31.08
2018-05-31T11:30:47.229Z,31.08
2018-05-31T11:33:14.615Z,30.28
2018-05-31T11:35:42.368Z,30.58
2018-05-31T11:38:09.750Z,31.20
2018-05-31T11:40:38.435Z,31.47
2018-05-31T11:43:05.816Z,31.79
2018-05-31T11:45:33.219Z,32.25
2018-05-31T11:48:00.605Z,32.86
2018-05-31T11:50:28.014Z,33.92
2018-05-31T11:52:55.390Z,34.02
2018-05-31T11:55:22.809Z,32.63
2018-05-31T11:57:50.195Z,32.10
2018-05-31T12:00:17.604Z,32.57
2018-05-31T12:02:44.994Z,34.31
2018-05-31T12:05:12.397Z,33.93
2018-05-31T12:07:39.792Z,31.67
2018-05-31T12:10:07.215Z,30.83
2018-05-31T12:12:34.586Z,31.88
2018-05-31T12:15:02.026Z,33.62
2018-05-31T12:17:29.429Z,34.91
2018-05-31T12:19:56.821Z,35.42
2018-05-31T12:22:24.204Z,33.11
2018-05-31T12:24:51.616Z,32.11
2018-05-31T12:27:19.012Z,34.00
2018-05-31T12:29:46.411Z,34.39
2018-05-31T12:32:13.866Z,34.49
2018-05-31T12:34:41.751Z,32.77
2018-05-31T12:37:09.151Z,32.84
2018-05-31T12:39:36.560Z,34.03
2018-05-31T12:42:03.945Z,34.85
2018-05-31T12:44:31.472Z,33.67
2018-05-31T12:46:58.863Z,32.80
2018-05-31T12:49:26.264Z,33.55
2018-05-31T12:51:53.684Z,33.48
2018-05-31T12:54:21.068Z,34.15
2018-05-31T12:56:48.451Z,35.22
2018-05-31T12:59:15.835Z,35.40
2018-05-31T13:01:43.242Z,35.16
2018-05-31T13:04:10.673Z,34.88
2018-05-31T13:06:38.055Z,37.03
2018-05-31T13:09:05.493Z,37.00
2018-05-31T13:11:32.894Z,37.21
2018-05-31T13:14:00.298Z,39.18
2018-05-31T13:16:27.777Z,38.59
2018-05-31T13:18:55.368Z,38.96
2018-05-31T13:21:22.763Z,38.44
2018-05-31T13:23:50.152Z,38.25
2018-05-31T13:26:17.612Z,38.81
2018-05-31T13:28:45.090Z,40.19
2018-05-31T13:31:12.477Z,38.91
2018-05-31T13:33:39.878Z,38.39
2018-05-31T13:36:07.400Z,39.28
2018-05-31T13:38:34.846Z,39.00
2018-05-31T13:41:02.245Z,40.53
2018-05-31T13:43:29.644Z,40.24
2018-05-31T13:45:57.036Z,39.37
2018-05-31T13:48:24.441Z,39.10
2018-05-31T13:50:51.831Z,39.93
2018-05-31T13:53:19.216Z,42.52
2018-05-31T13:55:46.626Z,41.71
2018-05-31T13:58:14.021Z,39.15
2018-05-31T14:00:42.394Z,36.57
2018-05-31T14:03:09.784Z,35.50
2018-05-31T14:05:37.182Z,37.11
2018-05-31T14:08:04.563Z,38.86
2018-05-31T14:10:32.081Z,38.53
2018-05-31T14:12:59.476Z,39.75
2018-05-31T14:15:26.871Z,40.07
2018-05-31T14:17:54.280Z,40.20
2018-05-31T14:20:21.671Z,38.11
2018-05-31T14:22:49.120Z,36.64
2018-05-31T14:25:16.568Z,35.72
2018-05-31T14:27:43.965Z,38.69
2018-05-31T14:30:12.251Z,37.99
2018-05-31T14:32:39.660Z,39.45
2018-05-31T14:35:07.056Z,38.71
2018-05-31T14:37:34.541Z,39.06
2018-05-31T14:40:02.035Z,39.53
2018-05-31T14:42:29.543Z,40.01
2018-05-31T14:44:56.953Z,39.46
2018-05-31T14:47:24.426Z,40.51
2018-05-31T14:49:51.812Z,39.31
2018-05-31T14:52:19.203Z,39.55
2018-05-31T14:54:46.728Z,38.75
2018-05-31T14:57:14.142Z,39.80
2018-05-31T14:59:41.538Z,40.61
2018-05-31T15:02:08.932Z,40.13
2018-05-31T15:04:36.326Z,39.98
2018-05-31T15:07:03.722Z,40.20
2018-05-31T15:09:31.120Z,39.12
2018-05-31T15:11:58.511Z,40.18
2018-05-31T15:14:25.903Z,41.31
2018-05-31T15:16:53.317Z,42.11
2018-05-31T15:19:20.699Z,39.91
2018-05-31T15:21:48.111Z,38.69
2018-05-31T15:24:15.489Z,37.60
2018-05-31T15:26:42.880Z,37.37
2018-05-31T15:29:10.264Z,36.92
2018-05-31T15:31:37.649Z,37.26
2018-05-31T15:34:05.027Z,37.66
2018-05-31T15:36:32.423Z,37.02
2018-05-31T15:38:59.818Z,36.94
2018-05-31T15:41:27.199Z,36.60
2018-05-31T15:43:54.595Z,36.37
2018-05-31T15:46:21.963Z,36.18
2018-05-31T15:48:49.372Z,35.11
2018-05-31T15:51:16.769Z,35.51
2018-05-31T15:53:44.171Z,35.45
2018-05-31T15:56:11.572Z,35.42
2018-05-31T15:58:38.966Z,35.72
2018-05-31T16:01:06.367Z,35.39
2018-05-31T16:03:33.764Z,35.23
2018-05-31T16:06:01.134Z,35.30
2018-05-31T16:08:28.583Z,34.18
2018-05-31T16:10:55.975Z,34.34
2018-05-31T16:13:23.360Z,33.39
2018-05-31T16:15:50.746Z,33.71
2018-05-31T16:18:18.135Z,34.16
2018-05-31T16:20:45.515Z,34.17
2018-05-31T16:23:12.914Z,33.84
2018-05-31T16:25:40.315Z,33.64
2018-05-31T16:28:07.703Z,33.86
2018-05-31T16:30:35.089Z,33.49
2018-05-31T16:33:02.465Z,33.28
2018-05-31T16:35:29.849Z,33.58
2018-05-31T16:37:57.592Z,32.70
2018-05-31T16:40:24.963Z,32.97
2018-05-31T16:42:52.338Z,33.23
2018-05-31T16:45:19.720Z,33.42
2018-05-31T16:47:47.112Z,32.88
2018-05-31T16:50:14.590Z,32.99
2018-05-31T16:52:42.970Z,33.35
2018-05-31T16:55:10.423Z,33.30
2018-05-31T16:57:37.961Z,33.27
2018-05-31T17:00:05.367Z,33.28
2018-05-31T17:02:32.758Z,33.09
2018-05-31T17:05:00.159Z,32.99
2018-05-31T17:07:28.128Z,32.90
2018-05-31T17:09:55.526Z,32.81
2018-05-31T17:12:22.905Z,32.77
2018-05-31T17:14:50.386Z,32.22
2018-05-31T17:17:17.747Z,32.29
2018-05-31T17:19:45.154Z,32.37
2018-05-31T17:22:13.220Z,32.41
2018-05-31T17:24:40.664Z,32.38
2018-05-31T17:27:08.054Z,32.66
2018-05-31T17:29:35.461Z,32.56
2018-05-31T17:32:02.849Z,32.41
2018-05-31T17:34:30.250Z,32.34
2018-05-31T17:36:57.657Z,32.35
2018-05-31T17:39:27.150Z,32.12
2018-05-31T17:41:55.909Z,32.03
2018-05-31T17:44:23.618Z,31.87
2018-05-31T17:46:51.115Z,31.95
2018-05-31T17:49:20.534Z,31.71
2018-05-31T17:51:47.882Z,32.02
2018-05-31T17:54:15.270Z,31.60
2018-05-31T17:56:43.253Z,31.73
2018-05-31T17:59:10.646Z,31.36
2018-05-31T18:01:38.046Z,31.71
2018-05-31T18:04:05.450Z,31.45
2018-05-31T18:06:32.861Z,31.43
2018-05-31T18:09:00.257Z,31.38
2018-05-31T18:11:27.664Z,31.23
2018-05-31T18:13:55.110Z,31.29
2018-05-31T18:16:22.491Z,31.54
2018-05-31T18:18:49.878Z,31.56
2018-05-31T18:21:17.268Z,31.45
2018-05-31T18:23:44.835Z,31.18
2018-05-31T18:26:12.241Z,30.86
2018-05-31T18:28:39.627Z,31.08
2018-05-31T18:31:07.026Z,30.98
2018-05-31T18:33:34.411Z,30.77
2018-05-31T18:36:01.802Z,30.74
2018-05-31T18:38:29.228Z,30.49
2018-05-31T18:40:56.624Z,30.37
2018-05-31T18:43:24.004Z,30.03
2018-05-31T18:45:51.405Z,30.09
2018-05-31T18:48:18.779Z,30.36
2018-05-31T18:50:47.143Z,30.24
2018-05-31T18:53:14.519Z,29.92
2018-05-31T18:55:42.092Z,30.11
2018-05-31T18:58:09.483Z,30.10
2018-05-31T19:00:36.868Z,29.99
2018-05-31T19:03:04.270Z,29.97
2018-05-31T19:05:31.640Z,29.87
2018-05-31T19:07:59.078Z,29.71
2018-05-31T19:10:26.485Z,29.77
2018-05-31T19:12:59.524Z,29.87
2018-05-31T19:15:26.989Z,29.83
2018-05-31T19:17:54.366Z,29.70
2018-05-31T19:20:24.567Z,29.87
2018-05-31T19:22:51.962Z,29.59
2018-05-31T19:25:20.854Z,29.78
2018-05-31T19:27:48.263Z,29.55
2018-05-31T19:30:21.382Z,29.49
2018-05-31T19:32:48.781Z,29.43
2018-05-31T19:35:21.642Z,29.16
2018-05-31T19:37:49.041Z,28.95
2018-05-31T19:40:16.424Z,29.04
2018-05-31T19:42:49.367Z,28.80
2018-05-31T19:45:16.852Z,29.16
2018-05-31T19:47:44.276Z,29.26
2018-05-31T19:50:11.670Z,28.98
2018-05-31T19:52:44.760Z,29.10
2018-05-31T19:55:12.208Z,28.79
2018-05-31T19:57:45.233Z,28.81
2018-05-31T20:00:18.299Z,28.87
2018-05-31T20:02:51.233Z,28.88
2018-05-31T20:05:18.627Z,28.78
2018-05-31T20:07:47.111Z,28.90
2018-05-31T20:10:14.524Z,28.97
2018-05-31T20:12:41.941Z,28.89
2018-05-31T20:15:09.345Z,28.97
2018-05-31T20:17:36.864Z,28.85
2018-05-31T20:20:04.263Z,28.63
2018-05-31T20:22:31.655Z,28.80
2018-05-31T20:24:59.054Z,28.71
2018-05-31T20:27:26.464Z,28.27
2018-05-31T20:29:53.861Z,28.27
2018-05-31T20:32:21.244Z,28.52
2018-05-31T20:34:48.624Z,28.19
2018-05-31T20:37:16.057Z,28.36
2018-05-31T20:39:44.103Z,28.43
2018-05-31T20:42:11.553Z,28.32
2018-05-31T20:44:39.072Z,28.37
2018-05-31T20:47:06.463Z,28.21
2018-05-31T20:49:33.985Z,28.25
2018-05-31T20:52:01.384Z,28.31
2018-05-31T20:54:28.781Z,28.17
2018-05-31T20:56:56.172Z,27.88
2018-05-31T20:59:23.592Z,28.05
2018-05-31T21:01:50.982Z,28.14
2018-05-31T21:04:18.422Z,27.97
2018-05-31T21:06:45.795Z,27.68
2018-05-31T21:09:13.188Z,27.75
2018-05-31T21:11:40.559Z,27.94
2018-05-31T21:14:07.947Z,27.82
2018-05-31T21:16:35.326Z,27.56
2018-05-31T21:19:02.783Z,27.75
2018-05-31T21:21:30.170Z,27.73
2018-05-31T21:23:57.564Z,27.28
2018-05-31T21:26:24.956Z,27.56
2018-05-31T21:28:52.336Z,27.57
2018-05-31T21:31:19.728Z,27.55
2018-05-31T21:33:47.132Z,26.87
2018-05-31T21:36:14.599Z,26.76
2018-05-31T21:38:42.043Z,27.43
2018-05-31T21:41:09.476Z,27.42
2018-05-31T21:43:36.856Z,27.25
2018-05-31T21:46:04.216Z,26.98
2018-05-31T21:48:31.603Z,26.72
2018-05-31T21:50:58.983Z,26.81
2018-05-31T21:53:26.511Z,26.85
2018-05-31T21:55:53.916Z,26.93
2018-05-31T21:58:21.311Z,27.10
2018-05-31T22:00:54.248Z,26.82
2018-05-31T22:03:21.650Z,26.75
2018-05-31T22:05:49.036Z,27.06
2018-05-31T22:08:16.419Z,27.04
2018-05-31T22:10:44.543Z,26.95
2018-05-31T22:13:11.928Z,26.88
2018-05-31T22:15:39.307Z,26.74
2018-05-31T22:18:06.699Z,26.70
2018-05-31T22:20:34.083Z,26.59
2018-05-31T22:23:01.468Z,26.60
2018-05-31T22:25:28.857Z,26.60
2018-05-31T22:27:56.248Z,26.82
2018-05-31T22:30:23.902Z,26.89
2018-05-31T22:32:51.274Z,26.53
2018-05-31T22:35:18.672Z,26.44
2018-05-31T22:37:46.047Z,26.50
2018-05-31T22:40:13.438Z,26.84
2018-05-31T22:42:40.836Z,26.70
2018-05-31T22:45:08.230Z,26.52
2018-05-31T22:47:35.608Z,26.44
2018-05-31T22:50:02.995Z,26.61
2018-05-31T22:52:30.372Z,26.54
2018-05-31T22:54:57.752Z,26.32
2018-05-31T22:57:25.147Z,26.26
2018-05-31T22:59:52.544Z,26.30
2018-05-31T23:02:19.921Z,26.28
2018-05-31T23:04:47.321Z,26.39
2018-05-31T23:07:14.776Z,26.34
2018-05-31T23:09:42.181Z,26.29
2018-05-31T23:12:09.548Z,26.20
2018-05-31T23:14:36.944Z,26.37
2018-05-31T23:17:04.332Z,26.16
2018-05-31T23:19:31.731Z,25.99
2018-05-31T23:21:59.121Z,26.34
2018-05-31T23:24:26.513Z,26.48
2018-05-31T23:26:53.896Z,26.41
2018-05-31T23:29:21.283Z,26.18
2018-05-31T23:31:48.715Z,26.10
2018-05-31T23:34:16.098Z,26.07
2018-05-31T23:36:43.487Z,26.23
2018-05-31T23:39:10.862Z,25.99
2018-05-31T23:41:38.264Z,26.08
2018-05-31T23:44:05.652Z,25.99
2018-05-31T23:46:33.036Z,25.17
2018-05-31T23:49:00.428Z,25.53
2018-05-31T23:51:27.839Z,25.69
2018-05-31T23:53:55.225Z,25.70
2018-05-31T23:56:23.413Z,25.79
2018-05-31T23:58:50.803Z,25.43
